KOJA

Thomas P Stafford Airport

Weatherford, Oklahoma, USA
METAR KOJA 221835Z AUTO 34017G22KT 10SM OVC015 01/M01 A2988 RMK AO2
Observed Flight Rules
Jan-22 @ 18:35 UTC (19 minutes ago) Marginal Visual Flight Rules
Wind Visibility Clouds
340° at 17 knots
 Gusting to 22 knots
10 miles
  • Overcast at 1,500' AGL
Temperatures Readings
Current 1°C / 34°F
Dewpoint -1°C / 30°F
Humidity 87%
Altimeter 29.88" Hg
Pressure 1011.82 hPa
Elevation 490
METAR KOJA 221835Z AUTO 34017G22KT 10SM OVC015 01/M01 A2988 RMK AO2
Observed Flight Rules
Jan-22 @ 18:35 UTC
(19 minutes ago)
MVFR
Wind Visibility
340° at 17 knots
 Gusting to 22 knots
10 miles
Clouds
  • Overcast at 1,500' AGL
Temperature Dewpoint
1°C / 34°F -1°C / 30°F
Humidity Altimeter Pressure
87% 29.88" Hg 1011.82 hPa